createdAt,value
2024-01-20T13:35:44.452Z,27.3
2024-01-20T13:41:24.798Z,27.4
2024-01-20T13:47:03.206Z,27.4
2024-01-20T13:52:46.691Z,27.4
2024-01-20T13:58:39.823Z,27.4
2024-01-20T14:04:19.999Z,27.4
2024-01-20T14:09:59.289Z,27.4
2024-01-20T14:15:38.177Z,27.4
2024-01-20T14:21:19.921Z,27.4
2024-01-20T14:27:02.354Z,27.4
2024-01-20T14:32:42.105Z,27.4
2024-01-20T14:38:21.515Z,27.4
2024-01-20T14:43:44.671Z,27.3
2024-01-20T14:49:25.444Z,26.8
2024-01-20T14:55:04.503Z,26.4
2024-01-20T15:00:43.948Z,24.9
2024-01-20T15:06:25.246Z,24
2024-01-20T15:12:07.087Z,23.4
2024-01-20T15:17:47.752Z,22.9
2024-01-20T15:23:29.867Z,22.3
2024-01-20T15:29:08.005Z,20.5
2024-01-20T15:34:51.507Z,19
2024-01-20T15:40:32.757Z,18.1
2024-01-20T15:46:11.086Z,17.6
2024-01-20T15:51:51.327Z,17.3
2024-01-20T16:02:53.620Z,16.7
2024-01-20T16:08:35.882Z,16.5
2024-01-20T16:14:16.867Z,16.4
2024-01-20T16:19:57.689Z,16.3
2024-01-20T16:25:23.367Z,16.1
2024-01-20T16:30:47.676Z,16.1
2024-01-20T16:36:12.173Z,15.9
2024-01-20T16:41:50.961Z,15.9
2024-01-20T16:47:31.912Z,15.9
2024-01-20T16:53:03.983Z,15.8
2024-01-20T16:58:40.942Z,15.8
2024-01-20T17:03:52.741Z,15.8
2024-01-20T17:09:01.674Z,15.7
2024-01-20T17:14:24.837Z,15.6
2024-01-20T17:20:04.791Z,15.6
2024-01-20T17:25:28.421Z,15.6
2024-01-20T17:30:53.252Z,15.6
2024-01-20T17:36:19.744Z,15.6
2024-01-20T17:41:58.996Z,15.5
2024-01-20T17:47:22.760Z,15.6
2024-01-20T17:52:46.960Z,15.6
2024-01-20T17:57:54.757Z,15.6
2024-01-20T18:03:21.743Z,15.6
2024-01-20T18:08:31.402Z,15.5
2024-01-20T18:14:10.297Z,15.5
2024-01-20T18:19:49.783Z,15.4
2024-01-20T18:25:28.989Z,15.4
2024-01-20T18:31:10.317Z,15.4
2024-01-20T18:36:49.486Z,15.4
2024-01-20T18:42:28.240Z,15.4
2024-01-20T18:48:09.669Z,15.4
2024-01-20T18:53:33.744Z,15.4
2024-01-20T18:58:56.909Z,15.3
2024-01-20T19:04:36.177Z,15.3
2024-01-20T19:10:01.617Z,15.3
2024-01-20T19:15:26.604Z,15.3
2024-01-20T19:21:08.066Z,15.3
2024-01-20T19:32:42.989Z,15.3
2024-01-20T19:38:08.870Z,15.3
2024-01-20T19:43:48.872Z,15.3
2024-01-20T19:49:30.393Z,15.3
2024-01-20T19:55:09.247Z,15.3
2024-01-20T20:00:50.895Z,15.3
2024-01-20T20:06:31.939Z,15.3
2024-01-20T20:12:10.162Z,15.3
2024-01-20T20:17:18.199Z,15.3
2024-01-20T20:22:58.046Z,15.6
2024-01-20T20:28:37.149Z,16
2024-01-20T20:34:41.268Z,16.7
2024-01-20T20:40:21.074Z,17.6
2024-01-20T20:46:00.489Z,18.4
2024-01-20T20:51:39.673Z,19.4
2024-01-20T20:57:19.918Z,20.4
2024-01-20T21:03:00.675Z,21.4
2024-01-20T21:08:41.019Z,21.9
2024-01-20T21:13:48.970Z,22.3
2024-01-20T21:19:13.238Z,22.4
2024-01-20T21:24:53.728Z,22.6
2024-01-20T21:30:33.404Z,22.7
2024-01-20T21:36:14.764Z,22.7
2024-01-20T21:41:52.697Z,22.8
2024-01-20T21:47:31.701Z,22.8
2024-01-20T21:53:11.669Z,22.9
2024-01-20T21:58:51.295Z,22.9
2024-01-20T22:04:30.895Z,22.9
2024-01-20T22:09:53.863Z,22.9
2024-01-20T22:15:32.365Z,22.9
2024-01-20T22:21:11.649Z,22.9
2024-01-20T22:26:50.056Z,22.9
2024-01-20T22:32:40.596Z,22.9
2024-01-20T22:38:21.187Z,23
2024-01-20T22:43:44.276Z,22.9
2024-01-20T22:49:24.706Z,22.9
2024-01-20T22:55:04.276Z,22.9
2024-01-20T23:00:42.756Z,22.9
2024-01-20T23:06:23.352Z,22.9
2024-01-20T23:12:01.820Z,22.9
2024-01-20T23:17:43.471Z,22.9
2024-01-20T23:23:23.623Z,22.9
2024-01-20T23:29:02.275Z,22.9
2024-01-20T23:34:42.007Z,22.9
2024-01-20T23:40:21.699Z,22.9
2024-01-20T23:46:00.778Z,22.8
2024-01-20T23:51:40.599Z,22.8
2024-01-20T23:57:03.729Z,22.8
